Time;durP1;ratioP1;P1;durP2;ratioP2;P2;SDS_P1;SDS_P2;PMS_P1;PMS_P2;Temp;Humidity;BMP_temperature;BMP_pressure;BME280_temperature;BME280_humidity;BME280_pressure;Samples;Min_cycle;Max_cycle;Signal;HPM_P1;HPM_P2
2024/03/12 00:01:07;;;;;;;42.15;23.33;;;;;;;6.52;100.00;100927.66;6120366;23;20013;-74
2024/03/12 00:03:42;;;;;;;46.03;25.38;;;;;;;6.51;100.00;100930.56;6069825;23;20037;-75
2024/03/12 00:06:09;;;;;;;38.92;23.00;;;;;;;6.48;100.00;100926.50;6094795;23;20025;-75
2024/03/12 00:08:36;;;;;;;43.05;24.27;;;;;;;6.49;100.00;100932.63;6070389;23;20784;-74
2024/03/12 00:11:04;;;;;;;38.72;22.67;;;;;;;6.48;100.00;100931.81;6146323;23;20013;-74
2024/03/12 00:13:30;;;;;;;41.22;22.45;;;;;;;6.48;100.00;100925.69;6094588;23;20017;-74
2024/03/12 00:16:00;;;;;;;47.22;25.00;;;;;;;6.48;100.00;100925.69;6095590;23;20028;-74
2024/03/12 00:18:27;;;;;;;43.45;24.80;;;;;;;6.48;100.00;100920.38;6093769;23;20024;-74
2024/03/12 00:20:53;;;;;;;36.47;20.20;;;;;;;6.49;100.00;100933.44;6145368;23;20359;-74
2024/03/12 00:23:19;;;;;;;;;;;;;;;6.50;100.00;100923.59;6119438;23;20017;-75
2024/03/12 00:25:44;;;;;;;31.02;18.17;;;;;;;6.47;100.00;100930.22;6119445;23;19917;-72
2024/03/12 00:28:11;;;;;;;37.83;22.42;;;;;;;6.48;100.00;100931.03;6119187;23;20750;-73
2024/03/12 00:30:44;;;;;;;41.20;23.30;;;;;;;6.47;100.00;100924.88;6145185;23;20013;-74
2024/03/12 00:33:10;;;;;;;41.28;23.77;;;;;;;6.48;100.00;100928.34;6144227;23;20013;-72
2024/03/12 00:35:38;;;;;;;43.05;26.27;;;;;;;6.48;100.00;100936.34;6144880;23;20448;-73
2024/03/12 00:38:05;;;;;;;47.35;26.40;;;;;;;6.45;100.00;100931.50;6118654;23;20025;-73
2024/03/12 00:40:33;;;;;;;41.42;23.17;;;;;;;6.39;100.00;100927.13;6094612;23;20508;-73
2024/03/12 00:43:00;;;;;;;42.00;24.63;;;;;;;6.39;100.00;100932.44;6093467;23;20463;-75
2024/03/12 00:45:26;;;;;;;42.63;24.75;;;;;;;6.38;100.00;100941.47;6119215;23;20023;-73
2024/03/12 00:47:54;;;;;;;44.10;25.70;;;;;;;6.35;100.00;100939.28;6143429;23;20017;-73
2024/03/12 00:50:22;;;;;;;45.10;24.52;;;;;;;6.33;100.00;100944.03;6143310;23;20565;-74
2024/03/12 00:52:52;;;;;;;44.67;25.65;;;;;;;6.30;100.00;100940.00;6094452;23;20125;-73
2024/03/12 00:55:23;;;;;;;47.15;27.13;;;;;;;6.27;100.00;100940.47;6118581;23;20013;-74
2024/03/12 00:57:50;;;;;;;40.45;23.17;;;;;;;6.24;100.00;100944.41;6093012;23;20393;-73
2024/03/12 01:00:17;;;;;;;39.75;21.73;;;;;;;6.23;100.00;100950.78;6118354;23;20364;-72
2024/03/12 01:02:50;;;;;;;40.10;21.67;;;;;;;6.23;100.00;100944.63;6122553;23;20056;-74
2024/03/12 01:05:17;;;;;;;43.80;23.52;;;;;;;6.22;100.00;100943.81;6123348;23;20112;-76
2024/03/12 01:07:42;;;;;;;41.00;23.80;;;;;;;6.20;100.00;100935.28;6145546;23;20060;-75
2024/03/12 01:10:08;;;;;;;46.58;24.75;;;;;;;6.19;100.00;100941.63;6096975;23;20049;-76
2024/03/12 01:12:34;;;;;;;45.15;23.92;;;;;;;6.19;100.00;100944.31;6118826;23;20025;-75
2024/03/12 01:14:59;;;;;;;40.55;22.92;;;;;;;6.16;100.00;100944.75;6094115;23;20507;-76
2024/03/12 01:17:25;;;;;;;44.55;24.08;;;;;;;6.13;100.00;100947.09;6072211;23;20021;-74
2024/03/12 01:19:51;;;;;;;38.63;22.42;;;;;;;6.10;100.00;100937.75;6120284;23;20021;-74
2024/03/12 01:22:17;;;;;;;42.22;23.40;;;;;;;6.05;100.00;100929.66;6117987;23;20024;-73
2024/03/12 01:24:42;;;;;;;37.83;22.67;;;;;;;6.00;100.00;100934.84;6145409;23;20036;-74
2024/03/12 01:27:10;;;;;;;45.03;24.77;;;;;;;5.93;100.00;100935.00;6094120;23;20104;-73
2024/03/12 01:29:37;;;;;;;40.25;21.70;;;;;;;5.90;100.00;100934.63;6118797;23;20028;-76
2024/03/12 01:32:06;;;;;;;39.63;24.13;;;;;;;5.83;100.00;100934.75;6070336;23;20013;-73
2024/03/12 01:34:35;;;;;;;40.25;23.15;;;;;;;5.77;100.00;100946.31;6119881;23;20017;-74
2024/03/12 01:37:00;;;;;;;40.50;21.63;;;;;;;5.67;100.00;100938.91;6142768;23;20017;-75
2024/03/12 01:39:28;;;;;;;45.05;23.85;;;;;;;5.62;100.00;100937.97;6094204;23;20022;-75
2024/03/12 01:41:54;;;;;;;37.08;21.67;;;;;;;5.59;100.00;100949.91;6093138;23;20080;-75
2024/03/12 01:44:20;;;;;;;44.97;23.17;;;;;;;5.52;100.00;100938.56;6094303;23;20009;-73
2024/03/12 01:46:46;;;;;;;34.20;20.42;;;;;;;5.46;100.00;100940.31;6117227;23;20021;-73
2024/03/12 01:49:13;;;;;;;36.42;20.50;;;;;;;5.40;100.00;100940.41;6094538;23;20096;-75
2024/03/12 01:51:39;;;;;;;40.58;22.42;;;;;;;5.33;100.00;100950.34;6117775;23;20013;-73
2024/03/12 01:54:05;;;;;;;38.85;23.27;;;;;;;5.26;100.00;100954.94;6069915;23;20093;-74
2024/03/12 01:56:31;;;;;;;38.53;23.35;;;;;;;5.19;100.00;100955.06;6143602;23;20013;-74
2024/03/12 01:59:01;;;;;;;42.63;23.75;;;;;;;5.09;100.00;100947.66;6118649;23;20101;-71
2024/03/12 02:01:26;;;;;;;;;;;;;;;5.04;100.00;100963.47;6118197;23;20029;-75
2024/03/12 02:03:52;;;;;;;38.78;21.35;;;;;;;4.98;100.00;100953.75;6144761;23;20114;-73
2024/03/12 02:06:27;;;;;;;37.50;21.20;;;;;;;4.93;100.00;100951.75;6093299;23;20017;-74
2024/03/12 02:08:53;;;;;;;48.50;26.50;;;;;;;4.84;100.00;100954.97;6113988;23;20443;-74
2024/03/12 02:11:19;;;;;;;42.45;22.50;;;;;;;4.78;100.00;100962.00;6094163;23;20036;-73
2024/03/12 02:13:45;;;;;;;41.30;22.70;;;;;;;4.72;100.00;100960.22;6093004;23;20460;-73
2024/03/12 02:16:11;;;;;;;34.30;20.27;;;;;;;4.69;100.00;100960.69;6118017;23;20467;-74
2024/03/12 02:18:38;;;;;;;41.97;21.80;;;;;;;4.66;100.00;100961.94;6148450;23;20180;-74
2024/03/12 02:21:05;;;;;;;45.22;22.42;;;;;;;4.61;100.00;100953.88;6123114;23;20017;-73
2024/03/12 02:23:37;;;;;;;42.22;24.15;;;;;;;4.60;100.00;100957.53;6093964;23;20614;-73
2024/03/12 02:26:03;;;;;;;;;;;;;;;4.54;100.00;100955.81;6072659;23;20097;-73
2024/03/12 02:28:28;;;;;;;34.78;18.77;;;;;;;4.47;100.00;100955.06;6145682;23;19920;-73
2024/03/12 02:30:54;;;;;;;39.80;20.98;;;;;;;4.50;100.00;100959.13;6144207;23;20364;-73
2024/03/12 02:33:20;;;;;;;42.72;21.95;;;;;;;4.42;100.00;100957.59;6094362;23;20075;-73
2024/03/12 02:35:46;;;;;;;36.50;19.98;;;;;;;4.39;100.00;100958.00;6094459;23;20013;-73
2024/03/12 02:38:11;;;;;;;39.33;21.30;;;;;;;4.38;100.00;100959.06;6143939;23;20020;-73
2024/03/12 02:40:38;;;;;;;40.28;22.63;;;;;;;4.37;100.00;100962.75;6094896;23;20061;-74
2024/03/12 02:43:04;;;;;;;46.22;23.45;;;;;;;4.32;100.00;100965.25;6068859;23;20075;-73
2024/03/12 02:45:30;;;;;;;;;;;;;;;4.25;100.00;100959.22;6118767;23;20752;-75
2024/03/12 02:47:56;;;;;;;34.15;20.08;;;;;;;4.14;100.00;100968.72;6092856;23;19912;-74
2024/03/12 02:50:23;;;;;;;39.33;21.67;;;;;;;4.07;100.00;100958.19;6069843;23;20017;-74
2024/03/12 02:52:49;;;;;;;40.72;23.33;;;;;;;4.06;100.00;100964.53;6117141;23;20018;-74
2024/03/12 02:55:14;;;;;;;39.65;23.17;;;;;;;4.09;100.00;100960.63;6118241;23;20013;-74
2024/03/12 02:57:41;;;;;;;;;;;;;;;4.08;100.00;100962.47;6118062;23;20355;-74
2024/03/12 03:00:11;;;;;;;44.92;23.77;;;;;;;4.08;100.00;100965.13;6118771;23;19919;-73
2024/03/12 03:02:37;;;;;;;44.55;24.65;;;;;;;4.07;100.00;100973.31;6117527;23;20022;-74
2024/03/12 03:05:06;;;;;;;47.42;23.10;;;;;;;4.06;100.00;100977.78;6141967;23;20020;-74
2024/03/12 03:07:32;;;;;;;44.97;23.05;;;;;;;4.05;100.00;100986.75;6092814;23;20028;-72
2024/03/12 03:09:58;;;;;;;42.90;23.65;;;;;;;4.02;100.00;100991.69;6119717;23;20096;-74
2024/03/12 03:12:25;;;;;;;41.83;22.27;;;;;;;4.00;100.00;100988.47;6093102;23;20072;-74
2024/03/12 03:14:51;;;;;;;35.40;20.38;;;;;;;3.97;100.00;100984.38;6094592;23;20096;-74
2024/03/12 03:17:17;;;;;;;38.88;22.23;;;;;;;3.98;100.00;100987.84;6118171;23;20040;-74
2024/03/12 03:19:43;;;;;;;36.80;21.50;;;;;;;3.97;100.00;100984.38;6119371;23;20052;-74
2024/03/12 03:22:09;;;;;;;38.33;21.33;;;;;;;3.92;100.00;100976.28;6116198;23;20088;-73
2024/03/12 03:24:36;;;;;;;36.33;21.05;;;;;;;3.89;100.00;100981.22;6118368;23;20082;-74
2024/03/12 03:27:03;;;;;;;41.50;22.80;;;;;;;3.88;100.00;100980.41;6092738;23;20019;-73
2024/03/12 03:29:31;;;;;;;38.80;22.38;;;;;;;3.89;100.00;100983.88;6094352;23;20013;-75
2024/03/12 03:31:58;;;;;;;42.75;22.45;;;;;;;3.91;100.00;100984.47;6120335;23;20530;-74
2024/03/12 03:34:28;;;;;;;41.63;22.27;;;;;;;3.91;100.00;100990.56;6069611;23;20025;-74
2024/03/12 03:36:58;;;;;;;37.15;21.27;;;;;;;3.93;100.00;100985.88;6117524;23;20017;-76
2024/03/12 03:39:24;;;;;;;37.03;21.75;;;;;;;3.94;100.00;100984.03;6093376;23;20024;-75
2024/03/12 03:41:51;;;;;;;;;;;;;;;3.91;100.00;100989.75;6093120;23;20017;-74
2024/03/12 03:44:16;;;;;;;37.67;20.50;;;;;;;3.85;100.00;100986.13;6093963;23;20254;-74
2024/03/12 03:46:42;;;;;;;34.53;20.90;;;;;;;3.81;100.00;100980.47;6118185;23;20017;-75
2024/03/12 03:49:08;;;;;;;33.53;18.83;;;;;;;3.77;100.00;100984.59;6126040;23;20084;-74
2024/03/12 03:51:35;;;;;;;31.70;18.88;;;;;;;3.72;100.00;100986.25;6077528;23;20013;-76
2024/03/12 03:54:02;;;;;;;33.17;18.70;;;;;;;3.68;100.00;100985.91;6124266;23;20021;-74
2024/03/12 03:56:28;;;;;;;32.72;19.55;;;;;;;3.63;100.00;100987.59;6122305;23;20440;-75
2024/03/12 03:58:58;;;;;;;32.42;19.15;;;;;;;3.62;100.00;100991.25;6096869;23;20088;-75
2024/03/12 04:01:24;;;;;;;33.53;19.38;;;;;;;3.55;100.00;101001.91;6119176;23;20022;-74
2024/03/12 04:03:53;;;;;;;37.15;21.05;;;;;;;3.44;100.00;101000.75;6118547;23;20121;-74
2024/03/12 04:06:22;;;;;;;38.63;20.35;;;;;;;3.39;100.00;101007.75;6119879;23;20761;-73
2024/03/12 04:08:53;;;;;;;33.97;19.23;;;;;;;3.33;100.00;101001.47;6119839;23;20022;-72
2024/03/12 04:11:23;;;;;;;32.83;19.23;;;;;;;3.30;100.00;101009.84;6094772;23;20021;-73
2024/03/12 04:13:49;;;;;;;31.25;17.77;;;;;;;3.29;100.00;101010.88;6144599;23;20014;-74
2024/03/12 04:16:15;;;;;;;33.67;20.05;;;;;;;3.24;100.00;101008.03;6073628;23;20023;-73
2024/03/12 04:18:44;;;;;;;34.65;19.02;;;;;;;3.20;100.00;101012.16;6096760;23;20363;-73
2024/03/12 04:21:13;;;;;;;34.53;19.98;;;;;;;3.14;100.00;101011.19;6121181;23;20024;-74
2024/03/12 04:23:39;;;;;;;33.47;20.00;;;;;;;3.11;100.00;101011.59;6096632;23;20017;-72
2024/03/12 04:26:04;;;;;;;36.85;21.20;;;;;;;3.12;100.00;101013.22;6121506;23;20014;-74
2024/03/12 04:28:31;;;;;;;34.92;19.83;;;;;;;3.13;100.00;101014.03;6120574;23;20379;-74
2024/03/12 04:30:57;;;;;;;39.83;21.48;;;;;;;3.15;100.00;101017.28;6121130;23;20017;-73
2024/03/12 04:33:24;;;;;;;38.92;21.50;;;;;;;3.14;100.00;101010.38;6146464;23;20019;-73
2024/03/12 04:35:50;;;;;;;40.13;22.75;;;;;;;3.13;100.00;101011.41;6096100;23;20534;-73
2024/03/12 04:38:18;;;;;;;35.63;19.52;;;;;;;3.13;100.00;101016.69;6120861;23;20017;-73
2024/03/12 04:40:47;;;;;;;35.30;20.15;;;;;;;3.12;100.00;101007.13;6098318;23;20096;-73
2024/03/12 04:43:18;;;;;;;40.03;21.08;;;;;;;3.12;100.00;101015.06;6146515;23;20014;-73
2024/03/12 04:45:43;;;;;;;33.00;20.10;;;;;;;3.12;100.00;101021.19;6121275;23;20017;-74
2024/03/12 04:48:11;;;;;;;36.50;19.85;;;;;;;3.12;100.00;101017.72;6146359;23;20727;-73
2024/03/12 04:50:38;;;;;;;32.97;19.67;;;;;;;3.14;100.00;101015.66;6096703;23;20021;-73
2024/03/12 04:53:04;;;;;;;39.25;21.30;;;;;;;3.18;100.00;101025.59;6118062;23;20128;-73
2024/03/12 04:55:33;;;;;;;41.65;21.63;;;;;;;3.20;100.00;101026.22;6095158;23;20025;-72
2024/03/12 04:58:00;;;;;;;42.60;23.73;;;;;;;3.22;100.00;101025.97;6143754;23;20021;-73
2024/03/12 05:00:28;;;;;;;36.67;22.02;;;;;;;3.24;100.00;101031.88;6121590;23;20020;-73
2024/03/12 05:02:54;;;;;;;38.72;22.23;;;;;;;3.26;100.00;101035.13;6118395;23;20017;-73
2024/03/12 05:05:20;;;;;;;36.65;20.80;;;;;;;3.29;100.00;101035.50;6124315;23;20341;-72
2024/03/12 05:07:50;;;;;;;37.35;21.33;;;;;;;3.32;100.00;101034.28;6123413;23;20043;-73
2024/03/12 05:10:21;;;;;;;42.05;21.33;;;;;;;3.33;100.00;101030.59;6097435;23;20018;-72
2024/03/12 05:12:47;;;;;;;39.35;21.77;;;;;;;3.38;100.00;101040.53;6118731;23;20014;-73
2024/03/12 05:15:12;;;;;;;40.60;22.02;;;;;;;3.39;100.00;101042.97;6145948;23;20020;-73
2024/03/12 05:17:42;;;;;;;33.97;19.25;;;;;;;3.41;100.00;101042.75;6095354;23;20032;-73
2024/03/12 05:20:15;;;;;;;36.95;21.48;;;;;;;3.43;100.00;101033.56;6073441;23;20017;-73
2024/03/12 05:22:41;;;;;;;38.67;23.75;;;;;;;3.44;100.00;101050.25;6095267;23;20033;-74
2024/03/12 05:25:10;;;;;;;30.15;18.77;;;;;;;3.47;100.00;101055.97;6146200;23;20345;-74
2024/03/12 05:27:43;;;;;;;31.73;19.70;;;;;;;3.50;100.00;101052.88;6120341;23;20013;-75
2024/03/12 05:30:14;;;;;;;39.53;21.27;;;;;;;3.51;100.00;101059.78;6120826;23;20415;-74
2024/03/12 05:32:47;;;;;;;32.92;19.33;;;;;;;3.54;100.00;101067.31;6119711;23;20009;-74
2024/03/12 05:35:21;;;;;;;33.03;18.85;;;;;;;3.56;100.00;101067.91;6120958;23;20025;-74
2024/03/12 05:40:43;;;;;;;39.10;22.20;;;;;;;3.59;100.00;101076.44;6097130;23;20080;-73
2024/03/12 05:48:39;;;;;;;37.00;20.05;;;;;;;3.64;100.00;101079.25;6147128;23;20456;-74
2024/03/12 05:51:07;;;;;;;36.50;21.85;;;;;;;3.67;100.00;101078.84;6096636;23;20076;-72
2024/03/12 05:53:39;;;;;;;38.35;21.63;;;;;;;3.68;100.00;101081.25;6145585;23;20012;-74
2024/03/12 05:56:09;;;;;;;35.92;20.73;;;;;;;3.71;100.00;101086.13;6113195;23;20036;-75
2024/03/12 05:58:35;;;;;;;30.45;17.85;;;;;;;3.72;100.00;101082.44;6121996;23;20017;-75
2024/03/12 06:01:02;;;;;;;35.28;22.40;;;;;;;3.73;100.00;101089.38;6148965;23;20019;-75
2024/03/12 06:03:29;;;;;;;33.08;21.00;;;;;;;3.75;100.00;101089.97;6124428;23;20103;-75
2024/03/12 06:05:54;;;;;;;32.15;20.40;;;;;;;3.78;100.00;101096.66;6095281;23;20021;-75
2024/03/12 06:08:21;;;;;;;36.25;21.42;;;;;;;3.81;100.00;101098.91;6119073;23;20013;-75
2024/03/12 06:10:48;;;;;;;36.75;21.08;;;;;;;3.85;100.00;101097.41;6119892;23;20017;-74
2024/03/12 06:13:15;;;;;;;39.65;20.98;;;;;;;3.89;100.00;101103.13;6094589;23;20564;-75
2024/03/12 06:15:40;;;;;;;36.45;20.55;;;;;;;3.94;100.00;101104.09;6094415;23;20136;-75
2024/03/12 06:18:06;;;;;;;35.75;21.42;;;;;;;4.00;100.00;101113.81;6144329;23;20013;-75
2024/03/12 06:20:31;;;;;;;40.03;23.75;;;;;;;4.02;100.00;101109.09;6118218;23;20013;-74
2024/03/12 06:22:57;;;;;;;37.90;22.50;;;;;;;4.06;100.00;101117.44;6093460;23;20014;-75
2024/03/12 06:25:23;;;;;;;34.92;20.70;;;;;;;4.09;100.00;101112.50;6117938;23;20037;-74
2024/03/12 06:27:49;;;;;;;32.90;19.08;;;;;;;4.16;100.00;101111.66;6119363;23;20348;-75
2024/03/12 06:30:15;;;;;;;39.50;24.38;;;;;;;4.21;100.00;101127.72;6143561;23;20017;-75
2024/03/12 06:32:41;;;;;;;33.08;19.55;;;;;;;4.24;100.00;101129.91;6145428;23;20016;-74
2024/03/12 06:35:07;;;;;;;36.33;22.60;;;;;;;4.28;100.00;101129.28;6094230;23;20025;-75
2024/03/12 06:37:34;;;;;;;33.15;20.02;;;;;;;4.30;100.00;101137.81;6094400;23;20093;-75
2024/03/12 06:40:06;;;;;;;35.13;21.65;;;;;;;4.35;100.00;101131.88;6119614;23;20044;-73
2024/03/12 06:42:32;;;;;;;38.08;22.95;;;;;;;4.39;100.00;101135.69;6119120;23;20018;-74
2024/03/12 06:45:00;;;;;;;35.53;21.33;;;;;;;4.42;100.00;101134.44;6145576;23;20048;-73
2024/03/12 06:47:26;;;;;;;34.38;21.40;;;;;;;4.41;100.00;101138.94;6118751;23;20105;-73
2024/03/12 06:49:52;;;;;;;34.05;19.77;;;;;;;4.43;100.00;101128.94;6143274;23;20354;-73
2024/03/12 06:52:22;;;;;;;34.05;21.50;;;;;;;4.47;100.00;101142.53;6143027;23;20823;-73
2024/03/12 06:54:48;;;;;;;30.13;17.85;;;;;;;4.51;100.00;101143.75;6119698;23;20767;-73
2024/03/12 06:57:19;;;;;;;32.22;21.15;;;;;;;4.52;100.00;101140.84;6117249;23;20021;-75
2024/03/12 06:59:48;;;;;;;35.50;22.73;;;;;;;4.56;100.00;101142.06;6119590;23;20458;-73
2024/03/12 07:02:17;;;;;;;33.67;20.20;;;;;;;4.59;100.00;101144.25;6118307;23;20024;-74
2024/03/12 07:04:44;;;;;;;33.67;21.20;;;;;;;4.62;100.00;101146.47;6118838;23;20029;-73
2024/03/12 07:07:13;;;;;;;35.58;20.85;;;;;;;4.65;100.00;101150.53;6144124;23;20448;-73
2024/03/12 07:09:40;;;;;;;35.00;20.27;;;;;;;4.68;100.00;101150.09;6094331;23;20021;-73
2024/03/12 07:12:08;;;;;;;36.83;22.05;;;;;;;4.71;100.00;101154.16;6116999;23;20460;-74
2024/03/12 07:14:42;;;;;;;33.40;20.45;;;;;;;4.72;100.00;101155.75;6117780;23;20041;-73
2024/03/12 07:17:12;;;;;;;35.00;22.65;;;;;;;4.74;100.00;101156.34;6117295;23;20024;-73
2024/03/12 07:19:38;;;;;;;35.63;22.20;;;;;;;4.75;100.00;101160.66;6119661;23;20013;-73
2024/03/12 07:22:07;;;;;;;;;;;;;;;4.78;100.00;101154.88;6096027;23;20028;-73
2024/03/12 07:24:34;;;;;;;30.15;19.00;;;;;;;4.79;100.00;101153.84;6120491;23;19916;-75
2024/03/12 07:27:07;;;;;;;36.17;21.90;;;;;;;4.81;100.00;101154.44;6098054;23;20017;-75
2024/03/12 07:29:33;;;;;;;;;;;;;;;4.83;100.00;101163.81;6119516;23;20021;-74
2024/03/12 07:32:03;;;;;;;31.20;18.63;;;;;;;4.84;100.00;101159.31;6098762;23;19928;-75
2024/03/12 07:34:32;;;;;;;30.75;18.10;;;;;;;4.88;100.00;101160.50;6147454;23;20451;-75
2024/03/12 07:36:59;;;;;;;34.60;21.75;;;;;;;4.90;100.00;101163.75;6121493;23;20053;-75
2024/03/12 07:39:25;;;;;;;34.08;20.80;;;;;;;4.91;100.00;101168.81;6119924;23;20013;-75
2024/03/12 07:41:55;;;;;;;30.23;18.55;;;;;;;4.94;100.00;101164.91;6118103;23;20014;-75
2024/03/12 07:44:22;;;;;;;28.92;17.88;;;;;;;4.98;100.00;101159.97;6119787;23;20439;-75
2024/03/12 07:46:50;;;;;;;33.20;19.55;;;;;;;4.99;100.00;101162.41;6147667;23;20018;-75
2024/03/12 07:49:20;;;;;;;35.35;22.75;;;;;;;5.01;100.00;101165.63;6146990;23;20018;-74
2024/03/12 07:51:50;;;;;;;34.70;20.17;;;;;;;5.03;100.00;101171.56;6073466;23;20021;-75
2024/03/12 07:54:18;;;;;;;36.28;21.48;;;;;;;5.04;100.00;101175.00;6120140;23;20010;-75
2024/03/12 07:56:51;;;;;;;32.90;21.30;;;;;;;5.05;100.00;101177.44;6120533;23;20020;-75
2024/03/12 07:59:21;;;;;;;34.03;21.00;;;;;;;5.08;100.00;101177.00;6071500;23;20451;-75
2024/03/12 08:01:49;;;;;;;34.00;20.73;;;;;;;5.10;100.00;101169.63;6096010;23;20045;-74
2024/03/12 08:04:16;;;;;;;34.63;22.10;;;;;;;5.12;100.00;101172.88;6096034;23;20080;-75
2024/03/12 08:06:43;;;;;;;35.22;21.60;;;;;;;5.14;100.00;101176.09;6121569;23;20013;-74
2024/03/12 08:09:09;;;;;;;33.03;20.17;;;;;;;5.15;100.00;101172.44;6146659;23;20009;-74
2024/03/12 08:11:36;;;;;;;33.13;19.50;;;;;;;5.16;100.00;101184.66;6096367;23;20112;-74
2024/03/12 08:14:02;;;;;;;;;;;;;;;5.19;100.00;101186.88;6120950;23;20021;-74
2024/03/12 08:16:29;;;;;;;32.38;18.73;;;;;;;5.22;100.00;101187.47;6146526;23;19915;-75
2024/03/12 08:18:55;;;;;;;37.17;20.83;;;;;;;5.23;100.00;101189.09;6143304;23;20041;-74
2024/03/12 08:21:21;;;;;;;35.40;21.20;;;;;;;5.23;100.00;101192.56;6096218;23;20024;-74
2024/03/12 08:23:47;;;;;;;33.53;20.80;;;;;;;5.25;100.00;101202.94;6120868;23;20013;-75
2024/03/12 08:26:12;;;;;;;33.67;22.10;;;;;;;5.27;100.00;101190.25;6146153;23;20009;-75
2024/03/12 08:28:38;;;;;;;31.33;20.15;;;;;;;5.30;100.00;101195.13;6121478;23;20024;-76
2024/03/12 08:31:04;;;;;;;35.65;18.80;;;;;;;5.33;100.00;101198.13;6120242;23;20096;-76
2024/03/12 08:33:30;;;;;;;34.85;20.13;;;;;;;5.34;100.00;101202.41;6096950;23;20045;-75
2024/03/12 08:35:56;;;;;;;32.30;19.98;;;;;;;5.37;100.00;101203.81;6121918;23;20359;-76
2024/03/12 08:38:23;;;;;;;33.97;19.65;;;;;;;5.42;100.00;101210.09;6144825;23;20776;-75
2024/03/12 08:40:49;;;;;;;35.05;20.63;;;;;;;5.44;100.00;101215.19;6121871;23;20013;-75
2024/03/12 08:43:15;;;;;;;31.95;20.42;;;;;;;5.45;100.00;101214.94;6120416;23;20048;-76
2024/03/12 08:45:41;;;;;;;32.30;20.33;;;;;;;5.45;100.00;101220.25;6148035;23;20013;-75
2024/03/12 08:48:07;;;;;;;34.17;18.63;;;;;;;5.45;100.00;101219.44;6096427;23;20503;-76
2024/03/12 08:50:33;;;;;;;30.38;19.30;;;;;;;5.48;100.00;101224.31;6121159;23;20013;-76
2024/03/12 08:53:00;;;;;;;31.20;19.02;;;;;;;5.54;100.00;101227.91;6120552;23;20021;-75
2024/03/12 08:55:26;;;;;;;31.23;18.45;;;;;;;5.59;100.00;101226.22;6119609;23;20095;-76
2024/03/12 08:57:52;;;;;;;27.77;18.08;;;;;;;5.59;100.00;101226.22;6146840;23;20096;-76
2024/03/12 09:00:18;;;;;;;29.42;18.35;;;;;;;5.65;100.00;101227.97;6145230;23;20049;-76
2024/03/12 09:02:45;;;;;;;28.05;16.52;;;;;;;5.71;100.00;101237.72;6146217;23;20431;-75
2024/03/12 09:05:12;;;;;;;29.92;16.75;;;;;;;5.78;100.00;101228.84;6120573;23;20064;-75
2024/03/12 09:07:37;;;;;;;27.30;16.58;;;;;;;5.85;100.00;101226.91;6120778;23;20013;-75
2024/03/12 09:10:12;;;;;;;30.33;16.15;;;;;;;5.89;100.00;101236.03;6145834;23;20020;-75
2024/03/12 09:12:38;;;;;;;27.35;17.33;;;;;;;5.89;100.00;101231.53;6072572;23;20071;-75
2024/03/12 09:15:08;;;;;;;24.70;14.95;;;;;;;5.94;100.00;101233.53;6146596;23;20017;-75
2024/03/12 09:17:36;;;;;;;23.45;15.18;;;;;;;5.99;100.00;101241.66;6120780;23;20352;-75
2024/03/12 09:20:05;;;;;;;23.63;14.60;;;;;;;6.00;100.00;101244.06;6121167;23;20075;-75
2024/03/12 09:22:31;;;;;;;26.58;16.40;;;;;;;6.02;100.00;101243.84;6120386;23;20092;-75
2024/03/12 09:24:57;;;;;;;;;;;;;;;6.11;100.00;101249.66;6147065;23;20017;-75
2024/03/12 09:27:24;;;;;;;21.88;12.55;;;;;;;6.16;100.00;101247.13;6119924;23;19912;-75
2024/03/12 09:29:50;;;;;;;22.40;13.50;;;;;;;6.19;100.00;101244.81;6120045;23;20348;-75
2024/03/12 09:32:17;;;;;;;;;;;;;;;6.26;100.00;101247.38;6145494;23;20013;-75
2024/03/12 09:34:42;;;;;;;21.10;11.48;;;;;;;6.28;100.00;101250.63;6119537;23;20255;-75
2024/03/12 09:37:11;;;;;;;20.15;13.80;;;;;;;6.35;100.00;101250.50;6120167;23;20478;-75
2024/03/12 09:39:39;;;;;;;19.15;12.00;;;;;;;6.39;100.00;101247.19;6119808;23;20023;-74
2024/03/12 09:42:07;;;;;;;17.25;12.63;;;;;;;6.44;100.00;101244.66;6144207;23;20452;-75
2024/03/12 09:44:35;;;;;;;17.70;11.45;;;;;;;6.46;100.00;101250.53;6095685;23;20052;-76
2024/03/12 09:47:05;;;;;;;15.98;11.10;;;;;;;6.52;100.00;101252.28;6143227;23;20037;-75
2024/03/12 09:49:35;;;;;;;15.82;10.50;;;;;;;6.59;100.00;101252.16;6119939;23;20452;-75
2024/03/12 09:52:05;;;;;;;14.73;9.63;;;;;;;6.66;100.00;101250.22;6119698;23;20025;-75
2024/03/12 09:54:34;;;;;;;15.00;9.75;;;;;;;6.68;100.00;101256.09;6145017;23;20183;-75
2024/03/12 09:57:02;;;;;;;15.00;9.05;;;;;;;6.72;100.00;101251.94;6146524;23;20045;-75
2024/03/12 09:59:28;;;;;;;14.30;10.05;;;;;;;6.78;100.00;101250.22;6023596;23;20099;-75
2024/03/12 10:01:54;;;;;;;;;;;;;;;6.84;100.00;101249.25;6120286;23;20013;-74
2024/03/12 10:04:19;;;;;;;16.20;10.05;;;;;;;6.87;100.00;101258.66;6142978;23;20261;-75
2024/03/12 10:06:45;;;;;;;12.90;8.25;;;;;;;6.91;100.00;101259.78;6144790;23;20384;-75
2024/03/12 10:09:18;;;;;;;12.85;8.73;;;;;;;6.95;100.00;101259.09;6094506;23;20107;-75
2024/03/12 10:11:47;;;;;;;13.20;8.43;;;;;;;6.99;100.00;101251.47;6095763;23;20064;-75
2024/03/12 10:14:17;;;;;;;13.35;9.13;;;;;;;7.01;100.00;101254.72;6094782;23;20068;-76
2024/03/12 10:16:43;;;;;;;14.10;9.00;;;;;;;7.06;100.00;101255.63;6145650;23;20017;-76
2024/03/12 10:19:17;;;;;;;13.05;8.50;;;;;;;7.11;100.00;101252.25;6119923;23;20021;-75
2024/03/12 10:21:44;;;;;;;12.52;9.23;;;;;;;7.17;100.00;101248.66;6146506;23;20789;-75
2024/03/12 10:24:13;;;;;;;13.77;9.30;;;;;;;7.22;100.00;101255.94;6119421;23;20053;-76
2024/03/12 10:26:44;;;;;;;14.05;8.85;;;;;;;7.24;100.00;101254.66;6146392;23;20013;-76
2024/03/12 10:29:12;;;;;;;12.95;8.98;;;;;;;7.30;100.00;101258.25;6144691;23;20013;-75
2024/03/12 10:31:43;;;;;;;16.02;10.23;;;;;;;7.36;100.00;101251.97;6095955;23;20021;-76
2024/03/12 10:34:17;;;;;;;14.00;9.15;;;;;;;7.42;100.00;101253.72;6095797;23;20013;-75
2024/03/12 10:36:44;;;;;;;16.73;8.93;;;;;;;7.51;100.00;101259.47;6095914;23;20021;-75
2024/03/12 10:39:27;;;;;;;15.20;10.13;;;;;;;7.58;100.00;101260.13;6118793;23;20025;-75
2024/03/12 10:41:58;;;;;;;13.82;9.02;;;;;;;7.65;100.00;101250.16;6095529;23;20017;-76
2024/03/12 10:44:27;;;;;;;13.40;9.35;;;;;;;7.72;100.00;101266.81;6093751;23;20103;-76
2024/03/12 10:46:53;;;;;;;16.75;10.30;;;;;;;7.85;100.00;101261.19;6119936;23;20021;-75
2024/03/12 10:49:22;;;;;;;14.85;9.93;;;;;;;7.96;100.00;101256.06;6119214;23;20076;-76
2024/03/12 10:51:49;;;;;;;14.20;9.02;;;;;;;8.14;100.00;101270.00;6094990;23;20048;-76
2024/03/12 10:54:16;;;;;;;;;;;;;;;8.25;100.00;101267.50;6096264;23;20036;-76
2024/03/12 10:56:45;;;;;;;15.38;8.43;;;;;;;8.32;100.00;101263.63;6096416;23;19918;-76
2024/03/12 10:59:12;;;;;;;15.88;9.35;;;;;;;8.36;100.00;101267.47;6145441;23;20052;-76
2024/03/12 11:01:39;;;;;;;;;;;;;;;8.45;100.00;101260.66;6121871;23;20044;-76
2024/03/12 11:04:05;;;;;;;16.08;9.13;;;;;;;8.57;100.00;101263.25;6097008;23;20621;-75
2024/03/12 11:06:35;;;;;;;26.08;13.82;;;;;;;8.67;100.00;101262.59;6119665;23;20037;-75
2024/03/12 11:09:02;;;;;;;23.10;14.05;;;;;;;8.75;100.00;101260.34;6121239;23;20018;-76
2024/03/12 11:11:28;;;;;;;22.80;13.65;;;;;;;8.80;100.00;101262.25;6124456;23;20013;-75
2024/03/12 11:13:56;;;;;;;24.27;15.13;;;;;;;8.95;100.00;101254.50;6124315;23;20037;-76
2024/03/12 11:16:30;;;;;;;26.73;16.65;;;;;;;9.09;100.00;101248.78;6121749;23;20017;-75
2024/03/12 11:18:56;;;;;;;24.48;14.13;;;;;;;9.21;100.00;101247.63;6149085;23;20018;-76
2024/03/12 11:21:23;;;;;;;;;;;;;;;9.40;100.00;101250.78;6122143;23;20017;-76
2024/03/12 11:23:49;;;;;;;27.25;15.65;;;;;;;9.45;100.00;101248.19;6122728;23;19919;-76